Dead River Township, Maine
Current Conditions -  °F | °C
As of 8:15 PM on Sunday 21 Dec 2014 (Local Time) from KWVL Reporting Station
Broken Clouds Broken Clouds  
Wind Chill: 18°   Ceiling: 5000
Heat Index: 25°   Visibility: 10mi
Dew Point: 18°   Wind: 6mph
Humidity: 74%   Direction: 20°NNE
Pressure: 30.34"   Gusts: NA
Location:  45.0341°N, 70.0886°W
Report Text: KWVL 220115Z 02005KT 10SM BKN050 M04/M08 A3034 RMK AO1
Loading
Personal Weather Stations






























Interactive Weather Map New forecast layout! Learn more

10-Day Weather Forecast

Advertisements
Track Severe Weather on mobile